createdAt,value
2023-01-13T00:01:54.407Z,1.27
2023-01-13T00:04:15.662Z,1.20
2023-01-13T00:06:36.912Z,1.30
2023-01-13T00:08:58.225Z,1.20
2023-01-13T00:11:20.177Z,1.40
2023-01-13T00:13:42.701Z,1.20
2023-01-13T00:16:05.080Z,1.30
2023-01-13T00:18:26.358Z,1.10
2023-01-13T00:20:47.396Z,1.20
2023-01-13T00:23:08.603Z,1.10
2023-01-13T00:25:29.758Z,1.10
2023-01-13T00:27:51.049Z,0.90
2023-01-13T00:30:14.130Z,1.30
2023-01-13T00:32:35.179Z,1.10
2023-01-13T00:34:56.615Z,1.17
2023-01-13T00:37:17.915Z,1.07
2023-01-13T00:39:39.295Z,1.13
2023-01-13T00:42:18.059Z,1.00
2023-01-13T00:44:39.482Z,1.10
2023-01-13T00:47:02.346Z,0.93
2023-01-13T00:49:23.784Z,1.17
2023-01-13T00:51:45.117Z,1.20
2023-01-13T00:54:06.533Z,1.10
2023-01-13T00:56:39.793Z,1.00
2023-01-13T00:59:02.348Z,1.00
2023-01-13T01:01:24.667Z,1.20
2023-01-13T01:03:48.091Z,1.10
2023-01-13T01:06:10.155Z,0.90
2023-01-13T01:08:31.259Z,1.00
2023-01-13T01:11:01.215Z,1.20
2023-01-13T01:13:22.357Z,1.10
2023-01-13T01:15:43.678Z,1.03
2023-01-13T01:18:04.748Z,0.83
2023-01-13T01:20:27.221Z,0.90
2023-01-13T01:22:48.553Z,1.00
2023-01-13T01:25:10.131Z,0.87
2023-01-13T01:27:31.455Z,1.00
2023-01-13T01:29:52.779Z,1.20
2023-01-13T01:32:14.524Z,0.80
2023-01-13T01:34:35.829Z,1.00
2023-01-13T01:36:58.633Z,1.00
2023-01-13T01:39:19.931Z,0.90
2023-01-13T01:42:01.155Z,1.20
2023-01-13T01:44:40.129Z,1.17
2023-01-13T01:47:01.276Z,1.00
2023-01-13T01:49:24.742Z,0.90
2023-01-13T01:51:47.673Z,1.00
2023-01-13T01:54:11.897Z,1.03
2023-01-13T01:56:34.441Z,1.00
2023-01-13T01:58:55.591Z,0.70
2023-01-13T02:01:16.983Z,1.10
2023-01-13T02:03:39.552Z,1.10
2023-01-13T02:06:00.815Z,0.90
2023-01-13T02:08:22.051Z,1.07
2023-01-13T02:10:46.151Z,1.00
2023-01-13T02:13:08.607Z,0.90
2023-01-13T02:15:33.635Z,1.03
2023-01-13T02:18:01.256Z,0.87
2023-01-13T02:20:39.573Z,1.00
2023-01-13T02:23:32.610Z,1.10
2023-01-13T02:26:01.986Z,1.20
2023-01-13T02:28:28.511Z,1.13
2023-01-13T02:31:11.631Z,1.40
2023-01-13T02:33:37.576Z,0.90
2023-01-13T02:36:00.528Z,1.00
2023-01-13T02:38:24.011Z,1.20
2023-01-13T02:40:47.353Z,1.00
2023-01-13T02:43:30.020Z,0.90
2023-01-13T02:45:54.792Z,1.00
2023-01-13T02:48:16.825Z,1.00
2023-01-13T02:50:40.316Z,1.10
2023-01-13T02:53:04.035Z,1.00
2023-01-13T02:55:27.682Z,0.90
2023-01-13T02:57:49.504Z,1.20
2023-01-13T03:00:12.234Z,1.07
2023-01-13T03:02:35.412Z,1.07
2023-01-13T03:04:57.163Z,0.90
2023-01-13T03:07:33.152Z,1.00
2023-01-13T03:09:56.423Z,0.97
2023-01-13T03:12:22.183Z,0.90
2023-01-13T03:14:48.465Z,1.00
2023-01-13T03:17:17.230Z,0.87
2023-01-13T03:19:43.172Z,0.97
2023-01-13T03:22:12.270Z,1.23
2023-01-13T03:24:36.400Z,1.00
2023-01-13T03:26:59.713Z,0.90
2023-01-13T03:29:22.906Z,0.77
2023-01-13T03:31:47.767Z,0.80
2023-01-13T03:34:10.690Z,0.97
2023-01-13T03:36:34.280Z,1.10
2023-01-13T03:38:57.577Z,1.07
2023-01-13T03:41:19.824Z,1.20
2023-01-13T03:44:00.394Z,0.90
2023-01-13T03:46:24.425Z,0.90
2023-01-13T03:48:47.181Z,0.90
2023-01-13T03:51:10.134Z,0.93
2023-01-13T03:53:34.350Z,1.00
2023-01-13T03:56:00.309Z,1.00
2023-01-13T03:58:26.632Z,1.13
2023-01-13T04:00:49.213Z,0.90
2023-01-13T04:03:11.979Z,1.00
2023-01-13T04:05:34.921Z,1.10
2023-01-13T04:07:59.774Z,1.00
2023-01-13T04:10:24.771Z,1.00
2023-01-13T04:13:04.203Z,0.87
2023-01-13T04:15:27.929Z,1.10
2023-01-13T04:17:48.872Z,0.93
2023-01-13T04:20:10.552Z,0.90
2023-01-13T04:22:31.869Z,0.97
2023-01-13T04:24:53.212Z,0.83
2023-01-13T04:27:15.894Z,0.97
2023-01-13T04:29:37.172Z,0.90
2023-01-13T04:31:58.514Z,1.00
2023-01-13T04:34:19.788Z,0.90
2023-01-13T04:36:40.984Z,1.00
2023-01-13T04:39:02.383Z,0.93
2023-01-13T04:41:23.661Z,1.00
2023-01-13T04:43:46.498Z,0.80
2023-01-13T04:46:07.903Z,1.00
2023-01-13T04:48:29.057Z,1.00
2023-01-13T04:50:50.272Z,0.90
2023-01-13T04:53:11.641Z,0.90
2023-01-13T04:55:32.953Z,0.90
2023-01-13T04:57:53.927Z,1.00
2023-01-13T05:00:17.670Z,0.60
2023-01-13T05:02:38.938Z,0.90
2023-01-13T05:05:00.584Z,1.10
2023-01-13T05:07:21.761Z,0.80
2023-01-13T05:09:43.079Z,0.97
2023-01-13T05:12:22.304Z,0.90
2023-01-13T05:15:01.294Z,0.80
2023-01-13T05:17:24.628Z,0.90
2023-01-13T05:19:45.929Z,0.80
2023-01-13T05:22:24.756Z,0.90
2023-01-13T05:25:03.827Z,0.70
2023-01-13T05:27:25.180Z,1.00
2023-01-13T05:29:46.465Z,0.97
2023-01-13T05:32:08.366Z,0.77
2023-01-13T05:34:30.949Z,1.00
2023-01-13T05:36:52.719Z,0.70
2023-01-13T05:39:14.033Z,0.90
2023-01-13T05:41:53.036Z,0.80
2023-01-13T05:44:14.432Z,0.80
2023-01-13T05:46:35.814Z,1.00
2023-01-13T05:48:57.199Z,0.70
2023-01-13T05:51:22.516Z,0.83
2023-01-13T05:53:43.892Z,0.90
2023-01-13T05:56:05.582Z,1.10
2023-01-13T05:58:27.779Z,1.03
2023-01-13T06:00:49.001Z,0.93
2023-01-13T06:03:10.761Z,0.90
2023-01-13T06:05:32.638Z,0.60
2023-01-13T06:07:58.581Z,0.70
2023-01-13T06:10:19.884Z,0.87
2023-01-13T06:12:41.368Z,0.70
2023-01-13T06:15:03.117Z,0.80
2023-01-13T06:17:24.868Z,0.67
2023-01-13T06:19:45.996Z,0.80
2023-01-13T06:22:11.707Z,1.40
2023-01-13T06:24:34.503Z,2.20
2023-01-13T06:26:55.528Z,1.60
2023-01-13T06:29:17.545Z,1.30
2023-01-13T06:31:39.696Z,0.97
2023-01-13T06:34:03.571Z,0.67
2023-01-13T06:36:26.343Z,0.90
2023-01-13T06:38:48.739Z,0.77
2023-01-13T06:41:11.137Z,0.60
2023-01-13T06:43:31.210Z,0.83
2023-01-13T06:45:54.165Z,0.70
2023-01-13T06:48:15.867Z,0.70
2023-01-13T06:50:36.903Z,0.87
2023-01-13T06:52:58.380Z,1.27
2023-01-13T06:55:19.479Z,0.70
2023-01-13T06:57:49.837Z,0.60
2023-01-13T07:00:11.781Z,0.57
2023-01-13T07:02:33.451Z,0.80
2023-01-13T07:04:54.602Z,0.60
2023-01-13T07:07:15.899Z,0.80
2023-01-13T07:09:37.232Z,0.80
2023-01-13T07:11:58.601Z,0.60
2023-01-13T07:14:39.138Z,0.80
2023-01-13T07:17:00.431Z,0.70
2023-01-13T07:19:23.867Z,0.80
2023-01-13T07:21:45.215Z,0.70
2023-01-13T07:24:06.691Z,1.00
2023-01-13T07:26:27.920Z,1.07
2023-01-13T07:28:49.389Z,0.70
2023-01-13T07:31:16.326Z,0.70
2023-01-13T07:33:37.677Z,1.50
2023-01-13T07:35:59.617Z,1.20
2023-01-13T07:38:20.441Z,1.33
2023-01-13T07:40:41.950Z,0.80
2023-01-13T07:43:20.581Z,0.80
2023-01-13T07:45:41.926Z,0.70
2023-01-13T07:48:04.764Z,0.70
2023-01-13T07:50:25.925Z,0.80
2023-01-13T07:52:47.181Z,0.90
2023-01-13T07:55:08.806Z,0.80
2023-01-13T07:57:29.900Z,0.63
2023-01-13T07:59:51.030Z,0.80
2023-01-13T08:02:12.930Z,0.77
2023-01-13T08:04:36.224Z,0.70
2023-01-13T08:06:57.491Z,0.80
2023-01-13T08:09:18.765Z,0.80
2023-01-13T08:11:40.060Z,0.80
2023-01-13T08:14:00.361Z,0.73
2023-01-13T08:16:21.574Z,0.80
2023-01-13T08:18:42.814Z,0.80
2023-01-13T08:21:06.619Z,0.73
2023-01-13T08:23:28.149Z,0.90
2023-01-13T08:25:49.885Z,0.80
2023-01-13T08:28:11.358Z,0.83
2023-01-13T08:30:33.061Z,0.90
2023-01-13T08:32:54.977Z,1.00
2023-01-13T08:35:17.411Z,1.20
2023-01-13T08:37:39.987Z,0.90
2023-01-13T08:40:01.040Z,0.70
2023-01-13T08:42:22.345Z,0.77
2023-01-13T08:44:43.523Z,0.77
2023-01-13T08:47:05.272Z,0.80
2023-01-13T08:49:26.838Z,1.13
2023-01-13T08:51:47.894Z,1.20
2023-01-13T08:54:10.831Z,1.10
2023-01-13T08:56:35.155Z,1.00
2023-01-13T08:58:58.637Z,0.70
2023-01-13T09:01:21.486Z,1.33
2023-01-13T09:03:42.953Z,2.70
2023-01-13T09:06:04.559Z,1.30
2023-01-13T09:08:25.393Z,1.10
2023-01-13T09:10:47.994Z,0.90
2023-01-13T09:13:12.042Z,0.80
2023-01-13T09:15:33.067Z,1.17
2023-01-13T09:17:54.430Z,0.87
2023-01-13T09:20:15.853Z,1.10
2023-01-13T09:22:37.559Z,0.90
2023-01-13T09:24:59.122Z,1.23
2023-01-13T09:27:21.897Z,1.37
2023-01-13T09:29:42.803Z,1.00
2023-01-13T09:32:04.161Z,1.20
2023-01-13T09:34:42.685Z,0.90
2023-01-13T09:37:04.264Z,1.10
2023-01-13T09:39:25.375Z,1.30
2023-01-13T09:42:05.962Z,1.43
2023-01-13T09:44:30.137Z,1.10
2023-01-13T09:46:53.799Z,1.00
2023-01-13T09:49:20.780Z,1.30
2023-01-13T09:51:45.731Z,1.20
2023-01-13T09:54:12.112Z,1.07
2023-01-13T09:56:33.411Z,1.30
2023-01-13T09:58:54.592Z,1.30
2023-01-13T10:01:22.354Z,1.20
2023-01-13T10:03:43.739Z,1.43
2023-01-13T10:06:09.889Z,1.43
2023-01-13T10:08:32.999Z,1.20
2023-01-13T10:10:55.835Z,1.27
2023-01-13T10:13:20.145Z,1.43
2023-01-13T10:15:43.158Z,1.53
2023-01-13T10:18:10.368Z,0.80
2023-01-13T10:20:34.201Z,0.97
2023-01-13T10:23:01.761Z,0.80
2023-01-13T10:25:30.081Z,0.90
2023-01-13T10:27:52.326Z,1.20
2023-01-13T10:30:19.332Z,0.90
2023-01-13T10:32:42.793Z,0.90
2023-01-13T10:35:05.947Z,1.10
2023-01-13T10:37:28.195Z,1.10
2023-01-13T10:39:49.964Z,1.10
2023-01-13T10:42:14.701Z,1.33
2023-01-13T10:44:47.047Z,1.10
2023-01-13T10:47:19.594Z,1.30
2023-01-13T10:49:40.673Z,1.00
2023-01-13T10:52:04.187Z,1.30
2023-01-13T10:54:25.796Z,1.17
2023-01-13T10:56:47.364Z,1.27
2023-01-13T10:59:10.697Z,0.87
2023-01-13T11:01:32.640Z,1.10
2023-01-13T11:03:54.686Z,1.30
2023-01-13T11:06:20.935Z,1.00
2023-01-13T11:08:45.246Z,1.10
2023-01-13T11:11:24.646Z,1.20
2023-01-13T11:13:59.862Z,1.30
2023-01-13T11:16:21.035Z,1.00
2023-01-13T11:18:51.904Z,0.70
2023-01-13T11:21:18.790Z,0.80
2023-01-13T11:23:42.440Z,0.80
2023-01-13T11:26:05.918Z,1.00
2023-01-13T11:28:39.553Z,1.17
2023-01-13T11:31:06.447Z,1.23
2023-01-13T11:33:31.627Z,1.50
2023-01-13T11:35:59.497Z,1.20
2023-01-13T11:38:27.465Z,0.90
2023-01-13T11:40:50.425Z,1.03
2023-01-13T11:43:15.398Z,1.23
2023-01-13T11:45:39.646Z,1.00
2023-01-13T11:48:01.598Z,1.17
2023-01-13T11:50:28.621Z,1.57
2023-01-13T11:53:05.412Z,1.47
2023-01-13T11:55:32.608Z,2.17
2023-01-13T11:58:00.349Z,1.40
2023-01-13T12:00:33.661Z,1.37
2023-01-13T12:02:58.459Z,1.10
2023-01-13T12:05:23.724Z,1.30
2023-01-13T12:07:50.083Z,1.70
2023-01-13T12:10:13.931Z,1.30
2023-01-13T12:12:41.054Z,1.43
2023-01-13T12:15:17.003Z,1.43
2023-01-13T12:17:48.061Z,1.87
2023-01-13T12:20:16.069Z,1.43
2023-01-13T12:22:37.407Z,1.60
2023-01-13T12:25:00.758Z,2.80
2023-01-13T12:27:25.384Z,2.37
2023-01-13T12:29:47.848Z,2.00
2023-01-13T12:32:12.896Z,25.77
2023-01-13T12:34:48.679Z,5.77
2023-01-13T12:37:13.072Z,2.30
2023-01-13T12:39:38.851Z,13.70
2023-01-13T12:42:23.876Z,4.27
2023-01-13T12:45:04.137Z,1.47
2023-01-13T12:47:34.698Z,16.23
2023-01-13T12:50:16.931Z,9.00
2023-01-13T12:52:45.181Z,1.40
2023-01-13T12:55:20.188Z,1.77
2023-01-13T12:57:56.364Z,14.23
2023-01-13T13:00:18.156Z,1.70
2023-01-13T13:02:40.112Z,1.47
2023-01-13T13:05:22.355Z,28.53
2023-01-13T13:07:46.484Z,14.33
2023-01-13T13:10:14.465Z,1.50
2023-01-13T13:13:12.988Z,1.80
2023-01-13T13:15:35.218Z,2.40
2023-01-13T13:18:05.274Z,7.60
2023-01-13T13:20:45.348Z,1.93
2023-01-13T13:23:27.437Z,2.43
2023-01-13T13:26:00.168Z,23.73
2023-01-13T13:28:22.911Z,38.33
2023-01-13T13:30:47.327Z,1.60
2023-01-13T13:33:15.777Z,1.83
2023-01-13T13:35:51.865Z,1.97
2023-01-13T13:38:48.304Z,2.30
2023-01-13T13:41:32.179Z,1.30
2023-01-13T13:44:10.743Z,1.87
2023-01-13T13:46:48.712Z,1.70
2023-01-13T13:49:09.893Z,2.17
2023-01-13T13:51:37.886Z,1.73
2023-01-13T13:54:02.752Z,1.90
2023-01-13T13:56:25.254Z,1.40
2023-01-13T13:58:47.750Z,1.90
2023-01-13T14:01:08.920Z,1.50
2023-01-13T14:03:31.517Z,2.20
2023-01-13T14:05:57.787Z,2.10
2023-01-13T14:08:19.208Z,1.87
2023-01-13T14:10:43.070Z,1.83
2023-01-13T14:13:14.520Z,1.70
2023-01-13T14:15:36.555Z,1.83
2023-01-13T14:17:57.591Z,1.63
2023-01-13T14:20:19.509Z,1.60
2023-01-13T14:22:40.635Z,1.63
2023-01-13T14:25:02.090Z,1.70
2023-01-13T14:27:27.357Z,1.87
2023-01-13T14:29:48.569Z,2.13
2023-01-13T14:32:10.043Z,1.70
2023-01-13T14:34:33.288Z,2.03
2023-01-13T14:36:54.526Z,2.60
2023-01-13T14:39:26.883Z,2.93
2023-01-13T14:41:50.548Z,2.10
2023-01-13T14:44:24.427Z,1.80
2023-01-13T14:46:46.279Z,1.40
2023-01-13T14:49:17.178Z,1.90
2023-01-13T14:51:38.202Z,1.80
2023-01-13T14:53:59.684Z,1.90
2023-01-13T14:56:37.440Z,2.00
2023-01-13T14:59:02.864Z,2.00
2023-01-13T15:01:30.354Z,1.80
2023-01-13T15:03:51.823Z,2.43
2023-01-13T15:06:26.083Z,2.30
2023-01-13T15:08:47.297Z,2.10
2023-01-13T15:11:17.405Z,7.53
2023-01-13T15:13:42.310Z,5.57
2023-01-13T15:16:07.650Z,5.50
2023-01-13T15:18:30.651Z,3.57
2023-01-13T15:20:51.919Z,2.67
2023-01-13T15:23:13.328Z,7.03
2023-01-13T15:25:35.447Z,3.47
2023-01-13T15:27:56.444Z,2.00
2023-01-13T15:30:18.897Z,5.27
2023-01-13T15:32:40.033Z,5.70
2023-01-13T15:35:02.588Z,10.23
2023-01-13T15:37:25.508Z,4.30
2023-01-13T15:39:46.526Z,8.93
2023-01-13T15:42:25.923Z,8.87
2023-01-13T15:45:05.152Z,10.50
2023-01-13T15:47:28.245Z,9.13
2023-01-13T15:49:49.417Z,6.53
2023-01-13T15:52:18.746Z,6.83
2023-01-13T15:54:40.190Z,4.97
2023-01-13T15:57:01.810Z,3.90
2023-01-13T15:59:24.993Z,3.50
2023-01-13T16:01:46.791Z,3.60
2023-01-13T16:04:09.629Z,3.43
2023-01-13T16:06:33.181Z,4.17
2023-01-13T16:08:55.813Z,10.23
2023-01-13T16:11:16.936Z,6.50
2023-01-13T16:13:38.039Z,4.40
2023-01-13T16:16:00.244Z,3.57
2023-01-13T16:18:24.232Z,3.60
2023-01-13T16:20:45.999Z,3.70
2023-01-13T16:23:06.919Z,4.50
2023-01-13T16:25:30.116Z,3.80
2023-01-13T16:27:51.606Z,3.43
2023-01-13T16:30:21.386Z,3.27
2023-01-13T16:32:43.434Z,3.73
2023-01-13T16:35:04.779Z,3.23
2023-01-13T16:37:26.600Z,17.60
2023-01-13T16:39:48.078Z,29.10
2023-01-13T16:42:10.499Z,35.87
2023-01-13T16:44:31.858Z,23.30
2023-01-13T16:46:53.095Z,35.67
2023-01-13T16:49:15.661Z,17.80
2023-01-13T16:51:36.765Z,14.47
2023-01-13T16:53:57.993Z,13.50
2023-01-13T16:56:23.274Z,22.73
2023-01-13T16:58:45.848Z,59.03
2023-01-13T17:01:07.518Z,31.63
2023-01-13T17:03:29.949Z,14.27
2023-01-13T17:05:51.172Z,14.10
2023-01-13T17:08:15.350Z,7.00
2023-01-13T17:10:36.660Z,6.60
2023-01-13T17:13:00.047Z,6.40
2023-01-13T17:15:24.391Z,6.40
2023-01-13T17:17:47.946Z,8.43
2023-01-13T17:20:11.403Z,6.43
2023-01-13T17:22:33.104Z,8.57
2023-01-13T17:24:54.229Z,6.67
2023-01-13T17:27:17.888Z,6.07
2023-01-13T17:29:38.909Z,7.20
2023-01-13T17:32:01.515Z,5.83
2023-01-13T17:34:23.087Z,4.33
2023-01-13T17:36:44.427Z,4.40
2023-01-13T17:39:06.075Z,4.47
2023-01-13T17:41:27.624Z,4.70
2023-01-13T17:43:49.417Z,3.50
2023-01-13T17:46:10.446Z,3.50
2023-01-13T17:48:33.124Z,3.63
2023-01-13T17:50:54.637Z,4.47
2023-01-13T17:53:15.934Z,4.63
2023-01-13T17:55:37.325Z,4.83
2023-01-13T17:57:58.588Z,4.23
2023-01-13T18:00:20.354Z,4.03
2023-01-13T18:02:41.391Z,4.03
2023-01-13T18:05:03.926Z,4.10
2023-01-13T18:07:25.192Z,3.70
2023-01-13T18:09:46.420Z,3.20
2023-01-13T18:12:07.902Z,3.23
2023-01-13T18:14:29.131Z,3.00
2023-01-13T18:16:50.822Z,3.30
2023-01-13T18:19:29.577Z,2.50
2023-01-13T18:22:09.773Z,3.87
2023-01-13T18:24:48.727Z,3.00
2023-01-13T18:27:22.648Z,3.40
2023-01-13T18:29:44.778Z,5.80
2023-01-13T18:32:07.966Z,2.80
2023-01-13T18:34:29.244Z,3.00
2023-01-13T18:36:51.979Z,5.10
2023-01-13T18:39:13.347Z,7.37
2023-01-13T18:41:51.762Z,3.10
2023-01-13T18:44:13.154Z,3.03
2023-01-13T18:46:34.428Z,3.40
2023-01-13T18:48:56.118Z,3.33
2023-01-13T18:51:17.442Z,4.70
2023-01-13T18:53:40.239Z,3.50
2023-01-13T18:56:05.951Z,3.03
2023-01-13T18:58:28.596Z,4.60
2023-01-13T19:00:50.318Z,2.90
2023-01-13T19:03:12.851Z,4.50
2023-01-13T19:05:35.611Z,2.67
2023-01-13T19:07:57.162Z,2.50
2023-01-13T19:10:20.286Z,6.00
2023-01-13T19:12:42.253Z,3.50
2023-01-13T19:15:03.852Z,2.50
2023-01-13T19:17:25.504Z,2.10
2023-01-13T19:19:47.269Z,1.80
2023-01-13T19:22:08.516Z,2.53
2023-01-13T19:24:29.667Z,3.07
2023-01-13T19:26:52.110Z,3.30
2023-01-13T19:29:13.514Z,3.73
2023-01-13T19:31:34.478Z,4.33
2023-01-13T19:33:55.624Z,3.60
2023-01-13T19:36:16.872Z,2.90
2023-01-13T19:38:38.466Z,2.50
2023-01-13T19:41:00.512Z,3.23
2023-01-13T19:43:41.316Z,1.67
2023-01-13T19:46:02.591Z,2.00
2023-01-13T19:48:24.063Z,2.10
2023-01-13T19:50:45.268Z,1.67
2023-01-13T19:53:06.738Z,2.20
2023-01-13T19:55:28.085Z,1.70
2023-01-13T19:57:49.039Z,2.00
2023-01-13T20:00:14.041Z,2.30
2023-01-13T20:02:36.708Z,2.00
2023-01-13T20:04:58.935Z,1.73
2023-01-13T20:07:20.053Z,1.53
2023-01-13T20:09:42.038Z,1.70
2023-01-13T20:12:05.631Z,2.10
2023-01-13T20:14:26.807Z,1.53
2023-01-13T20:16:49.251Z,2.30
2023-01-13T20:19:10.689Z,2.77
2023-01-13T20:21:31.974Z,2.60
2023-01-13T20:23:53.650Z,2.10
2023-01-13T20:26:14.742Z,2.20
2023-01-13T20:28:37.909Z,1.90
2023-01-13T20:30:59.007Z,1.70
2023-01-13T20:33:21.755Z,1.73
2023-01-13T20:35:45.065Z,1.60
2023-01-13T20:38:06.258Z,1.97
2023-01-13T20:40:27.688Z,1.83
2023-01-13T20:42:47.968Z,2.00
2023-01-13T20:45:09.804Z,2.07
2023-01-13T20:47:31.395Z,2.20
2023-01-13T20:49:53.917Z,2.00
2023-01-13T20:52:15.144Z,1.90
2023-01-13T20:54:36.812Z,2.30
2023-01-13T20:56:57.738Z,2.00
2023-01-13T20:59:18.939Z,2.20
2023-01-13T21:01:40.433Z,2.43
2023-01-13T21:04:02.173Z,2.40
2023-01-13T21:06:24.909Z,2.40
2023-01-13T21:08:47.057Z,2.97
2023-01-13T21:11:10.407Z,2.40
2023-01-13T21:13:49.492Z,2.50
2023-01-13T21:16:10.749Z,4.50
2023-01-13T21:18:49.508Z,3.30
2023-01-13T21:21:13.523Z,3.17
2023-01-13T21:23:35.785Z,2.40
2023-01-13T21:25:57.112Z,2.30
2023-01-13T21:28:18.445Z,2.73
2023-01-13T21:30:39.688Z,3.77
2023-01-13T21:33:04.495Z,2.60
2023-01-13T21:35:25.598Z,2.70
2023-01-13T21:37:46.827Z,3.10
2023-01-13T21:40:11.975Z,2.77
2023-01-13T21:42:50.901Z,3.27
2023-01-13T21:45:30.266Z,2.90
2023-01-13T21:47:52.051Z,2.93
2023-01-13T21:50:13.853Z,2.67
2023-01-13T21:52:34.720Z,3.00
2023-01-13T21:55:13.829Z,4.20
2023-01-13T21:57:36.481Z,4.10
2023-01-13T21:59:57.649Z,3.70
2023-01-13T22:02:32.589Z,3.83
2023-01-13T22:04:53.886Z,3.43
2023-01-13T22:07:15.240Z,3.33
2023-01-13T22:09:36.488Z,3.43
2023-01-13T22:11:57.784Z,3.10
2023-01-13T22:14:20.298Z,2.93
2023-01-13T22:16:49.057Z,3.30
2023-01-13T22:19:11.534Z,2.90
2023-01-13T22:21:32.961Z,8.43
2023-01-13T22:23:54.972Z,6.13
2023-01-13T22:26:15.976Z,5.03
2023-01-13T22:28:43.485Z,4.80
2023-01-13T22:31:09.772Z,5.40
2023-01-13T22:33:30.749Z,4.80
2023-01-13T22:35:54.979Z,4.20
2023-01-13T22:38:16.196Z,2.83
2023-01-13T22:40:37.430Z,4.10
2023-01-13T22:42:58.611Z,3.77
2023-01-13T22:45:19.916Z,4.00
2023-01-13T22:47:42.708Z,4.10
2023-01-13T22:50:03.757Z,4.30
2023-01-13T22:52:27.159Z,3.50
2023-01-13T22:54:48.368Z,3.27
2023-01-13T22:57:09.819Z,3.03
2023-01-13T22:59:31.875Z,3.57
2023-01-13T23:01:52.845Z,3.67
2023-01-13T23:04:15.595Z,2.93
2023-01-13T23:06:36.744Z,3.10
2023-01-13T23:08:58.004Z,3.03
2023-01-13T23:11:20.060Z,3.40
2023-01-13T23:13:43.182Z,3.30
2023-01-13T23:16:05.492Z,3.80
2023-01-13T23:18:26.682Z,3.47
2023-01-13T23:20:49.147Z,3.20
2023-01-13T23:23:10.385Z,3.53
2023-01-13T23:25:31.657Z,3.13
2023-01-13T23:27:53.131Z,3.27
2023-01-13T23:30:14.465Z,3.40
2023-01-13T23:32:36.153Z,3.20
2023-01-13T23:34:57.261Z,3.20
2023-01-13T23:37:20.002Z,3.13
2023-01-13T23:39:41.216Z,3.20
2023-01-13T23:42:02.568Z,2.80
2023-01-13T23:44:23.841Z,2.90
2023-01-13T23:46:44.979Z,2.77
2023-01-13T23:49:06.355Z,2.77
2023-01-13T23:51:29.957Z,2.80
2023-01-13T23:53:52.796Z,2.70
2023-01-13T23:56:15.082Z,2.50
2023-01-13T23:58:36.136Z,2.43
